Time;durP1;ratioP1;P1;durP2;ratioP2;P2;SDS_P1;SDS_P2;PMS_P1;PMS_P2;Temp;Humidity;BMP_temperature;BMP_pressure;BME280_temperature;BME280_humidity;BME280_pressure;Samples;Min_cycle;Max_cycle;Signal;HPM_P1;HPM_P2
2023/12/19 00:00:10;;;;;;;245.57;116.43;;;;;;;-143.21;86.70;74829.66;5032855;28;20204;-85
2023/12/19 00:02:37;;;;;;;214.60;104.67;;;;;;;-143.21;87.34;74821.75;5032332;28;20250;-84
2023/12/19 00:05:07;;;;;;;226.83;110.67;;;;;;;-143.21;87.46;74821.75;5031829;28;20221;-84
2023/12/19 00:07:34;;;;;;;164.17;77.07;;;;;;;-143.21;88.38;74821.75;5031636;28;20199;-84
2023/12/19 00:10:01;;;;;;;175.20;83.60;;;;;;;-143.21;88.27;74837.63;5031519;28;20297;-84
2023/12/19 00:12:28;;;;;;;177.70;84.60;;;;;;;-143.21;87.76;74859.44;5029928;28;20213;-83
2023/12/19 00:14:55;;;;;;;171.53;82.60;;;;;;;-143.21;88.24;74875.31;5041766;28;20234;-84
2023/12/19 00:17:21;;;;;;;160.83;79.93;;;;;;;-143.21;89.27;74867.38;5035885;28;20207;-84
2023/12/19 00:19:48;;;;;;;174.43;81.73;;;;;;;-143.21;89.75;74859.44;5043988;28;20297;-84
2023/12/19 00:22:16;;;;;;;172.30;83.30;;;;;;;-143.21;90.03;74855.47;5053293;28;20211;-84
2023/12/19 00:24:43;;;;;;;160.90;79.67;;;;;;;-143.21;90.18;74843.56;5047071;28;20798;-84
2023/12/19 00:27:10;;;;;;;151.00;72.30;;;;;;;-143.21;90.24;74843.56;5042449;28;20223;-84
2023/12/19 00:29:37;;;;;;;146.73;74.13;;;;;;;-143.21;90.29;74823.72;5034845;28;20212;-85
2023/12/19 00:32:04;;;;;;;156.57;77.20;;;;;;;-143.21;89.33;74817.75;5030247;28;20222;-84
2023/12/19 00:34:31;;;;;;;161.50;75.20;;;;;;;-143.21;89.19;74815.78;5038225;28;20219;-84
2023/12/19 00:36:57;;;;;;;132.30;63.37;;;;;;;-143.21;88.64;74817.75;5038894;28;20214;-85
2023/12/19 00:39:26;;;;;;;115.10;56.73;;;;;;;-143.21;88.64;74807.84;5044981;28;20218;-84
2023/12/19 00:41:52;;;;;;;121.97;59.53;;;;;;;-143.21;88.51;74797.91;5036262;28;20294;-84
2023/12/19 00:44:19;;;;;;;116.93;56.20;;;;;;;-143.21;88.36;74795.94;5040732;28;20232;-84
2023/12/19 00:46:46;;;;;;;116.23;57.30;;;;;;;-143.21;88.09;74784.03;5036363;28;20230;-84
2023/12/19 00:49:13;;;;;;;115.33;57.43;;;;;;;-143.21;87.95;74782.03;5037703;28;20213;-81
2023/12/19 00:51:40;;;;;;;120.27;59.53;;;;;;;-143.21;88.17;74770.13;5043235;28;20701;-82
2023/12/19 00:54:07;;;;;;;139.20;68.83;;;;;;;-143.21;87.43;74766.16;5045301;28;20216;-81
2023/12/19 00:56:37;;;;;;;142.67;70.43;;;;;;;-143.21;87.09;74764.19;5040011;28;20202;-81
2023/12/19 00:59:03;;;;;;;114.80;56.80;;;;;;;-143.21;87.32;74803.88;5035873;28;20222;-80
2023/12/19 01:01:30;;;;;;;116.07;55.70;;;;;;;-143.21;87.35;74831.66;5040891;28;20668;-82
2023/12/19 01:03:57;;;;;;;124.93;60.27;;;;;;;-143.21;86.58;74867.38;5044094;28;20226;-82
2023/12/19 01:06:24;;;;;;;124.17;58.00;;;;;;;-143.21;87.44;74869.38;5040636;28;20223;-81
2023/12/19 01:08:50;;;;;;;123.60;57.87;;;;;;;-143.21;88.19;74847.53;5037024;28;20213;-82
2023/12/19 01:11:18;;;;;;;124.53;61.20;;;;;;;-143.21;88.48;74835.63;5038532;28;20209;-82
2023/12/19 01:13:46;;;;;;;126.53;60.27;;;;;;;-143.21;88.69;74821.75;5040360;28;20236;-84
2023/12/19 01:16:14;;;;;;;122.97;59.30;;;;;;;-143.21;87.95;74845.56;5043499;28;20268;-82
2023/12/19 01:18:41;;;;;;;116.40;58.50;;;;;;;-143.21;87.25;74885.25;5038930;28;20237;-82
2023/12/19 01:21:07;;;;;;;118.70;59.03;;;;;;;-143.21;88.17;74897.16;5039688;28;20232;-81
2023/12/19 01:23:34;;;;;;;130.83;60.63;;;;;;;-143.21;88.81;74881.28;5046329;28;20195;-82
2023/12/19 01:26:01;;;;;;;126.50;61.10;;;;;;;-143.21;89.01;74877.31;5034898;28;20675;-83
2023/12/19 01:28:28;;;;;;;122.83;60.33;;;;;;;-143.21;89.18;74869.38;5036816;28;20204;-82
2023/12/19 01:30:56;;;;;;;127.00;59.77;;;;;;;-143.21;89.22;74857.47;5039550;28;20209;-84
2023/12/19 01:33:23;;;;;;;120.07;59.10;;;;;;;-143.21;89.27;74859.44;5034926;28;20615;-82
2023/12/19 01:35:50;;;;;;;129.20;57.77;;;;;;;-143.21;89.40;74845.56;5042114;28;20204;-83
2023/12/19 01:38:17;;;;;;;122.23;59.70;;;;;;;-143.21;88.80;74821.75;5032695;28;20253;-82
2023/12/19 01:40:44;;;;;;;119.30;57.93;;;;;;;-143.21;88.08;74831.66;5042279;28;20312;-84
2023/12/19 01:43:18;;;;;;;113.93;59.27;;;;;;;-143.21;88.02;74825.69;5032348;28;20236;-82
2023/12/19 01:45:49;;;;;;;120.90;58.10;;;;;;;-143.21;87.64;74817.75;5037824;28;20312;-84
2023/12/19 01:48:18;;;;;;;119.13;55.87;;;;;;;-143.21;86.99;74815.78;5042687;28;20210;-83
2023/12/19 01:50:47;;;;;;;116.23;56.13;;;;;;;-143.21;86.95;74817.75;5043098;28;20258;-83
2023/12/19 01:53:14;;;;;;;110.20;53.17;;;;;;;-143.21;86.93;74805.84;5038782;28;20216;-84
2023/12/19 01:55:41;;;;;;;106.10;53.40;;;;;;;-143.21;86.29;74801.88;5034205;28;20208;-84
2023/12/19 01:58:11;;;;;;;114.73;54.67;;;;;;;-143.21;85.99;74793.94;5038470;28;20201;-85
2023/12/19 02:00:38;;;;;;;102.17;45.27;;;;;;;-143.21;85.30;74825.69;5043893;28;20622;-84
2023/12/19 02:03:06;;;;;;;93.40;45.90;;;;;;;-143.21;86.18;74859.44;5041772;28;20218;-83
2023/12/19 02:05:38;;;;;;;96.87;45.37;;;;;;;-143.21;87.35;74909.06;5025145;28;20201;-82
2023/12/19 02:08:06;;;;;;;94.70;45.53;;;;;;;-143.21;88.54;74911.03;5027477;28;20896;-83
2023/12/19 02:10:33;;;;;;;98.17;46.63;;;;;;;-143.21;89.56;74913.03;5035638;28;20268;-83
2023/12/19 02:13:00;;;;;;;98.73;46.63;;;;;;;-143.21;90.38;74899.13;5040567;28;20233;-83
2023/12/19 02:15:27;;;;;;;100.80;49.93;;;;;;;-143.21;90.22;74879.28;5037789;28;20207;-83
2023/12/19 02:17:54;;;;;;;107.43;49.27;;;;;;;-143.21;89.48;74875.31;5022650;28;20641;-85
2023/12/19 02:20:21;;;;;;;101.50;49.00;;;;;;;-143.21;87.98;74895.16;5031984;28;20203;-84
2023/12/19 02:22:52;;;;;;;99.83;48.50;;;;;;;-143.21;88.18;74911.03;5033784;28;20215;-85
2023/12/19 02:25:20;;;;;;;107.17;49.47;;;;;;;-143.21;88.80;74911.03;5037616;28;20210;-85
2023/12/19 02:27:47;;;;;;;100.70;47.57;;;;;;;-143.21;89.20;74895.16;5038757;28;20311;-86
2023/12/19 02:30:14;;;;;;;100.60;49.23;;;;;;;-143.21;89.24;74885.25;5038771;28;20701;-86
2023/12/19 02:32:42;;;;;;;96.40;49.00;;;;;;;-143.21;89.63;74873.34;5036345;28;20277;-84
2023/12/19 02:35:09;;;;;;;99.67;48.27;;;;;;;-143.21;90.20;74875.31;5038791;28;20760;-85
2023/12/19 02:37:36;;;;;;;103.23;46.97;;;;;;;-143.21;88.92;74889.22;5035887;28;20210;-84
2023/12/19 02:40:05;;;;;;;91.87;46.30;;;;;;;-143.21;87.96;74905.09;5045053;28;20205;-84
2023/12/19 02:42:32;;;;;;;94.53;46.23;;;;;;;-143.21;88.67;74909.06;5046488;28;20202;-84
2023/12/19 02:44:58;;;;;;;97.67;46.33;;;;;;;-143.21;89.16;74901.13;5047952;28;20696;-84
2023/12/19 02:47:25;;;;;;;90.13;45.33;;;;;;;-143.21;89.82;74891.19;5054442;28;20648;-85
2023/12/19 02:49:52;;;;;;;95.53;45.10;;;;;;;-143.21;89.55;74881.28;5042299;28;20208;-84
2023/12/19 02:52:19;;;;;;;86.50;44.30;;;;;;;-143.21;89.46;74863.41;5044993;28;20204;-84
2023/12/19 02:54:46;;;;;;;94.77;43.63;;;;;;;-143.21;88.98;74851.50;5047426;28;20211;-84
2023/12/19 02:57:14;;;;;;;93.33;44.27;;;;;;;-143.21;88.57;74851.50;5047488;28;20205;-84
2023/12/19 02:59:41;;;;;;;99.43;44.47;;;;;;;-143.21;88.68;74837.63;5046290;28;20223;-84
2023/12/19 03:02:07;;;;;;;97.00;45.70;;;;;;;-143.21;88.32;74833.66;5044852;28;20318;-82
2023/12/19 03:04:34;;;;;;;86.60;42.10;;;;;;;-143.21;88.16;74841.59;5051937;28;20212;-83
2023/12/19 03:07:02;;;;;;;97.10;43.87;;;;;;;-143.21;88.14;74837.63;5048038;28;20227;-82
2023/12/19 03:09:29;;;;;;;91.40;45.30;;;;;;;-143.21;87.87;74827.69;5045617;28;20226;-83
2023/12/19 03:12:01;;;;;;;106.93;53.00;;;;;;;-143.21;87.38;74829.66;5042287;28;20207;-83
2023/12/19 03:14:29;;;;;;;113.10;55.43;;;;;;;-143.21;87.56;74829.66;5029343;28;20226;-83
2023/12/19 03:16:56;;;;;;;113.13;54.83;;;;;;;-143.21;87.52;74817.75;5033751;28;20679;-83
2023/12/19 03:19:23;;;;;;;117.23;56.17;;;;;;;-143.21;87.25;74803.88;5037139;28;20575;-82
2023/12/19 03:21:50;;;;;;;109.67;54.17;;;;;;;-143.21;86.83;74799.91;5034995;28;20320;-81
2023/12/19 03:24:18;;;;;;;105.20;52.07;;;;;;;-143.21;86.62;74803.88;5035297;28;20210;-82
2023/12/19 03:26:45;;;;;;;103.83;52.87;;;;;;;-143.21;86.19;74805.84;5034938;28;20244;-82
2023/12/19 03:29:15;;;;;;;106.53;52.33;;;;;;;-143.21;86.24;74819.75;5035964;28;20207;-83
2023/12/19 03:31:43;;;;;;;106.87;52.67;;;;;;;-143.21;85.86;74845.56;5035172;28;20243;-82
2023/12/19 03:34:12;;;;;;;111.43;54.80;;;;;;;-143.21;84.84;74877.31;5034384;28;20209;-84
2023/12/19 03:36:39;;;;;;;106.17;51.67;;;;;;;-143.21;85.98;74915.00;5034526;28;20199;-83
2023/12/19 03:39:06;;;;;;;120.40;56.30;;;;;;;-143.21;87.32;74932.88;5034011;28;20240;-83
2023/12/19 03:41:33;;;;;;;111.50;52.57;;;;;;;-143.21;87.72;74926.91;5034896;28;20297;-84
2023/12/19 03:44:00;;;;;;;111.07;54.73;;;;;;;-143.21;88.31;74913.03;5033067;28;20217;-83
2023/12/19 03:46:27;;;;;;;121.00;57.27;;;;;;;-143.21;88.94;74907.06;5033842;28;20230;-82
2023/12/19 03:48:55;;;;;;;130.63;60.47;;;;;;;-143.21;88.11;74911.03;5036641;28;20241;-84
2023/12/19 03:51:22;;;;;;;127.37;61.40;;;;;;;-143.21;86.94;74932.88;5029715;28;20200;-83
2023/12/19 03:53:48;;;;;;;127.07;60.93;;;;;;;-143.21;87.45;74956.69;5032325;28;20210;-83
2023/12/19 03:56:15;;;;;;;132.53;61.63;;;;;;;-143.21;88.17;74946.78;5031122;28;20217;-84
2023/12/19 03:58:42;;;;;;;133.97;61.53;;;;;;;-143.21;88.87;74922.94;5031947;28;20557;-83
2023/12/19 04:01:10;;;;;;;126.83;60.53;;;;;;;-143.21;88.98;74917.00;5032285;28;20593;-82
2023/12/19 04:03:38;;;;;;;123.80;59.40;;;;;;;-143.21;89.13;74905.09;5032378;28;20556;-85
2023/12/19 04:06:06;;;;;;;118.77;56.67;;;;;;;-143.21;89.21;74891.19;5031980;28;20662;-85
2023/12/19 04:08:33;;;;;;;110.10;53.07;;;;;;;-143.21;88.95;74889.22;5031711;28;20203;-84
2023/12/19 04:10:59;;;;;;;107.47;50.70;;;;;;;-143.21;88.90;74873.34;5031688;28;20218;-84
2023/12/19 04:13:26;;;;;;;110.77;54.00;;;;;;;-143.21;88.17;74875.31;5032466;28;20237;-83
2023/12/19 04:15:53;;;;;;;105.23;51.20;;;;;;;-143.21;87.90;74867.38;5031397;28;20554;-83
2023/12/19 04:18:19;;;;;;;103.50;48.90;;;;;;;-143.21;87.69;74855.47;5039377;28;20201;-84
2023/12/19 04:20:46;;;;;;;88.47;41.10;;;;;;;-143.21;87.17;74841.59;5040916;28;20210;-83
2023/12/19 04:23:15;;;;;;;78.17;39.80;;;;;;;-143.21;87.01;74847.53;5036807;28;20211;-82
2023/12/19 04:25:42;;;;;;;68.57;33.17;;;;;;;-143.21;87.02;74857.47;5035701;28;20542;-84
2023/12/19 04:28:09;;;;;;;69.13;32.23;;;;;;;-143.21;87.56;74847.53;5032771;28;20223;-84
2023/12/19 04:30:36;;;;;;;70.30;32.23;;;;;;;-143.21;87.03;74831.66;5036801;28;20210;-85
2023/12/19 04:33:03;;;;;;;86.47;41.60;;;;;;;-143.21;87.11;74839.59;5037499;28;20216;-84
2023/12/19 04:35:30;;;;;;;81.23;37.97;;;;;;;-143.21;87.19;74841.59;5035485;28;20198;-85
2023/12/19 04:37:56;;;;;;;78.77;36.93;;;;;;;-143.21;87.18;74829.66;5033384;28;20323;-85
2023/12/19 04:40:25;;;;;;;93.27;41.33;;;;;;;-143.21;86.84;74833.66;5034646;28;20208;-86
2023/12/19 04:42:51;;;;;;;87.80;38.33;;;;;;;-143.21;85.76;74873.34;5032030;28;20208;-85
2023/12/19 04:45:18;;;;;;;75.87;37.07;;;;;;;-143.21;85.88;74911.03;5031560;28;20210;-85
2023/12/19 04:47:45;;;;;;;70.77;34.60;;;;;;;-143.21;86.45;74942.78;5031294;28;20725;-85
2023/12/19 04:50:15;;;;;;;77.57;36.47;;;;;;;-143.21;87.55;74956.69;5029589;28;20579;-84
2023/12/19 04:52:42;;;;;;;77.40;35.77;;;;;;;-143.21;88.19;74954.72;5026968;28;20705;-75
2023/12/19 04:55:09;;;;;;;77.90;35.07;;;;;;;-143.21;89.06;74956.69;5026914;28;20662;-75
2023/12/19 04:57:37;;;;;;;72.10;34.73;;;;;;;-143.21;89.90;74950.75;5029187;28;20213;-74
2023/12/19 05:00:06;;;;;;;77.70;36.47;;;;;;;-143.21;90.16;74938.81;5027256;28;20629;-76
2023/12/19 05:02:33;;;;;;;82.67;38.43;;;;;;;-143.21;90.67;74917.00;5026494;28;20205;-75
2023/12/19 05:05:00;;;;;;;92.10;42.63;;;;;;;-143.21;90.43;74907.06;5027611;28;20222;-74
2023/12/19 05:07:27;;;;;;;124.70;47.83;;;;;;;-143.21;90.08;74893.19;5028391;28;20266;-75
2023/12/19 05:09:53;;;;;;;118.83;45.33;;;;;;;-143.21;89.18;74883.25;5028236;28;20208;-75
2023/12/19 05:12:21;;;;;;;103.27;42.83;;;;;;;-143.21;88.93;74873.34;5023262;28;20204;-74
2023/12/19 05:14:50;;;;;;;97.20;42.87;;;;;;;-143.21;89.32;74871.34;5026073;28;20254;-74
2023/12/19 05:17:19;;;;;;;112.87;47.20;;;;;;;-143.21;89.69;74879.28;5019646;28;20629;-76
2023/12/19 05:19:46;;;;;;;120.83;50.23;;;;;;;-143.21;90.18;74875.31;5024829;28;20234;-75
2023/12/19 05:22:13;;;;;;;134.73;53.00;;;;;;;-143.21;90.12;74861.44;5023872;28;20214;-74
2023/12/19 05:24:42;;;;;;;130.27;50.53;;;;;;;-143.21;89.87;74849.53;5024661;28;20205;-75
2023/12/19 05:27:09;;;;;;;135.67;52.60;;;;;;;-143.21;88.45;74861.44;5023847;28;20216;-75
2023/12/19 05:29:36;;;;;;;115.67;49.27;;;;;;;-143.21;87.53;74899.13;5024103;28;20300;-77
2023/12/19 05:32:05;;;;;;;125.53;48.77;;;;;;;-143.21;88.26;74926.91;5025577;28;20275;-77
2023/12/19 05:34:32;;;;;;;139.27;52.00;;;;;;;-143.21;88.90;74926.91;5014751;28;20204;-75
2023/12/19 05:37:03;;;;;;;138.60;52.57;;;;;;;-143.21;89.68;74934.84;5020031;28;20931;-80
2023/12/19 05:39:30;;;;;;;143.50;60.50;;;;;;;-143.21;90.13;74930.88;5025180;28;20267;-80
2023/12/19 05:41:58;;;;;;;166.50;67.37;;;;;;;-143.21;90.69;74915.00;5028260;28;20657;-76
2023/12/19 05:44:25;;;;;;;173.40;71.00;;;;;;;-143.21;90.81;74907.06;5021100;28;20206;-76
2023/12/19 05:46:51;;;;;;;174.70;72.23;;;;;;;-143.21;91.21;74895.16;5022324;28;20195;-76
2023/12/19 05:49:20;;;;;;;187.13;76.53;;;;;;;-143.21;90.84;74885.25;5022601;28;20197;-76
2023/12/19 05:51:46;;;;;;;207.60;86.03;;;;;;;-143.21;90.18;74879.28;5021437;28;20230;-77
2023/12/19 05:54:13;;;;;;;211.03;92.33;;;;;;;-143.21;89.79;74885.25;5024037;28;20206;-75
2023/12/19 05:56:40;;;;;;;204.30;90.47;;;;;;;-143.21;89.98;74883.25;5026163;28;20198;-75
2023/12/19 05:59:07;;;;;;;207.13;91.03;;;;;;;-143.21;89.82;74879.28;5024738;28;20197;-75
2023/12/19 06:01:34;;;;;;;200.00;85.47;;;;;;;-143.21;89.44;74859.44;5023978;28;20261;-76
2023/12/19 06:04:01;;;;;;;204.10;89.50;;;;;;;-143.21;89.48;74861.44;5022432;28;20226;-75
2023/12/19 06:06:29;;;;;;;176.40;82.03;;;;;;;-143.21;87.80;74865.41;5024450;28;20237;-76
2023/12/19 06:08:56;;;;;;;189.97;78.50;;;;;;;-143.21;86.35;74901.13;5023108;28;20222;-76
2023/12/19 06:11:27;;;;;;;189.67;81.33;;;;;;;-143.21;86.83;74936.84;5026912;28;20216;-76
2023/12/19 06:13:54;;;;;;;208.37;90.70;;;;;;;-143.21;88.43;74946.78;5024444;28;20231;-76
2023/12/19 06:16:20;;;;;;;209.50;91.47;;;;;;;-143.21;89.11;74936.84;5026896;28;20321;-76
2023/12/19 06:18:47;;;;;;;230.70;101.90;;;;;;;-143.21;89.68;74920.97;5025473;28;20213;-76
2023/12/19 06:21:14;;;;;;;237.43;104.97;;;;;;;-143.21;90.36;74909.06;5025409;28;20218;-75
2023/12/19 06:23:42;;;;;;;240.07;109.90;;;;;;;-143.21;89.56;74891.19;5025835;28;20214;-77
2023/12/19 06:26:09;;;;;;;252.70;111.77;;;;;;;-143.21;88.51;74913.03;5027949;28;20290;-76
2023/12/19 06:28:38;;;;;;;268.47;113.53;;;;;;;-143.21;88.44;74922.94;5025245;28;20704;-74
2023/12/19 06:31:06;;;;;;;261.17;112.27;;;;;;;-143.21;89.27;74918.97;5025358;28;20215;-75
2023/12/19 06:33:32;;;;;;;255.10;113.90;;;;;;;-143.21;89.95;74915.00;5025367;28;20215;-76
2023/12/19 06:35:59;;;;;;;255.77;113.50;;;;;;;-143.21;90.47;74895.16;5027910;28;20206;-76
2023/12/19 06:38:26;;;;;;;219.13;97.70;;;;;;;-143.21;90.50;74891.19;5026310;28;20203;-76
2023/12/19 06:40:54;;;;;;;144.33;62.67;;;;;;;-143.21;91.01;74879.28;5025759;28;20207;-76
2023/12/19 06:43:21;;;;;;;103.37;47.43;;;;;;;-143.21;91.14;74875.31;5022258;28;20210;-75
2023/12/19 06:45:48;;;;;;;86.50;41.93;;;;;;;-143.21;91.15;74849.53;5025596;28;20221;-76
2023/12/19 06:48:15;;;;;;;133.07;57.63;;;;;;;-143.21;90.93;74837.63;5027754;28;20228;-76
2023/12/19 06:50:41;;;;;;;158.93;69.33;;;;;;;-143.21;90.55;74831.66;5024789;28;20290;-76
2023/12/19 06:53:08;;;;;;;155.07;67.87;;;;;;;-143.21;89.97;74827.69;5024611;28;20214;-76
2023/12/19 06:55:35;;;;;;;162.47;72.23;;;;;;;-143.21;89.72;74815.78;5025594;28;20215;-76
2023/12/19 06:58:04;;;;;;;167.53;78.03;;;;;;;-143.21;89.71;74819.75;5027875;28;20202;-74
2023/12/19 07:00:30;;;;;;;184.53;84.77;;;;;;;-143.21;89.58;74815.78;5025712;28;20202;-75
2023/12/19 07:02:57;;;;;;;177.27;81.27;;;;;;;-143.21;88.91;74811.81;5025424;28;20216;-76
2023/12/19 07:05:24;;;;;;;196.23;89.43;;;;;;;-143.21;88.36;74795.94;5026222;28;20205;-75
2023/12/19 07:07:51;;;;;;;139.47;62.67;;;;;;;-143.21;88.09;74789.97;5026890;28;20265;-77
2023/12/19 07:10:19;;;;;;;92.30;46.43;;;;;;;-143.21;87.47;74778.06;5026921;28;20210;-76
2023/12/19 07:12:46;;;;;;;69.80;36.30;;;;;;;-143.21;86.96;74782.03;5024377;28;20238;-76
2023/12/19 07:15:14;;;;;;;69.00;35.07;;;;;;;-143.21;86.60;74780.06;5025643;28;20433;-77
2023/12/19 07:17:42;;;;;;;71.77;34.80;;;;;;;-143.21;86.91;74780.06;5025232;28;20240;-76
2023/12/19 07:20:10;;;;;;;65.13;35.57;;;;;;;-143.21;86.21;74821.75;5027570;28;20205;-74
2023/12/19 07:22:36;;;;;;;71.13;38.50;;;;;;;-143.21;84.80;74857.47;5024842;28;20208;-77
2023/12/19 07:25:04;;;;;;;83.07;36.93;;;;;;;-143.21;85.67;74877.31;5030216;28;20212;-79
2023/12/19 07:27:31;;;;;;;74.10;37.53;;;;;;;-143.21;86.81;74869.38;5028711;28;20316;-78
2023/12/19 07:29:58;;;;;;;84.47;39.03;;;;;;;-143.21;87.25;74849.53;5030378;28;20228;-79
2023/12/19 07:32:26;;;;;;;79.40;38.27;;;;;;;-143.21;87.02;74843.56;5031020;28;20287;-81
2023/12/19 07:34:53;;;;;;;82.80;40.13;;;;;;;-143.21;86.97;74829.66;5029722;28;20209;-80
2023/12/19 07:37:20;;;;;;;70.07;37.00;;;;;;;-143.21;87.64;74837.63;5030054;28;20218;-83
2023/12/19 07:39:47;;;;;;;81.17;39.70;;;;;;;-143.21;86.34;74841.59;5030319;28;20219;-79
2023/12/19 07:42:14;;;;;;;85.00;40.00;;;;;;;-143.21;87.22;74851.50;5032334;28;20293;-81
2023/12/19 07:44:42;;;;;;;83.30;41.60;;;;;;;-143.21;87.82;74843.56;5029953;28;20209;-80
2023/12/19 07:47:09;;;;;;;89.30;43.03;;;;;;;-143.21;89.03;74813.78;5029125;28;20204;-79
2023/12/19 07:49:38;;;;;;;92.03;43.57;;;;;;;-143.21;88.95;74807.84;5030510;28;20278;-84
2023/12/19 07:52:05;;;;;;;93.87;45.73;;;;;;;-143.21;89.52;74797.91;5031908;28;20225;-83
2023/12/19 07:54:32;;;;;;;92.60;44.87;;;;;;;-143.21;89.74;74776.09;5032374;28;20204;-91
2023/12/19 07:56:59;;;;;;;88.93;45.27;;;;;;;-143.21;89.97;74758.22;5031914;28;20285;-88
2023/12/19 07:59:26;;;;;;;93.53;46.37;;;;;;;-143.21;89.79;74742.34;5031758;28;20292;-79
2023/12/19 08:01:53;;;;;;;88.03;45.73;;;;;;;-143.21;89.53;74722.50;5029499;28;20219;-79
2023/12/19 08:04:20;;;;;;;93.83;46.57;;;;;;;-143.21;89.33;74702.66;5029640;28;20934;-79
2023/12/19 08:06:48;;;;;;;91.10;47.50;;;;;;;-143.21;88.82;74694.72;5028054;28;20207;-79
2023/12/19 08:09:15;;;;;;;91.20;47.67;;;;;;;-143.21;89.28;74676.88;5027320;28;20241;-80
2023/12/19 08:11:42;;;;;;;93.07;46.40;;;;;;;-143.21;88.35;74684.81;5029209;28;20277;-79
2023/12/19 08:14:09;;;;;;;91.40;47.00;;;;;;;-143.21;88.19;74708.63;5030259;28;20273;-79
2023/12/19 08:16:37;;;;;;;97.40;47.23;;;;;;;-143.21;88.29;74700.69;5028700;28;20696;-80
2023/12/19 08:19:10;;;;;;;98.07;48.07;;;;;;;-143.21;88.62;74684.81;5028474;28;20615;-79
2023/12/19 08:21:49;;;;;;;99.07;48.40;;;;;;;-143.21;90.16;74684.81;5027547;28;20201;-79
2023/12/19 08:24:16;;;;;;;103.77;50.13;;;;;;;-143.21;90.36;74678.84;5027623;28;20212;-79
2023/12/19 08:26:47;;;;;;;98.33;49.83;;;;;;;-143.21;89.63;74688.78;5029933;28;20308;-79
2023/12/19 08:29:14;;;;;;;100.63;49.50;;;;;;;-143.21;89.24;74700.69;5029051;28;20234;-80
2023/12/19 08:31:41;;;;;;;106.10;52.13;;;;;;;-143.21;90.16;74702.66;5030302;28;20196;-85
2023/12/19 08:34:08;;;;;;;112.60;53.77;;;;;;;-143.21;90.65;74682.81;5030862;28;20604;-86
2023/12/19 08:36:35;;;;;;;108.03;54.77;;;;;;;-143.21;90.98;74661.00;5031327;28;20209;-85
2023/12/19 08:39:06;;;;;;;119.13;54.30;;;;;;;-143.21;91.07;74645.09;5032253;28;20614;-84
2023/12/19 08:41:34;;;;;;;133.63;61.93;;;;;;;-143.21;89.94;74639.16;5031291;28;20268;-85
2023/12/19 08:44:01;;;;;;;135.57;61.93;;;;;;;-143.21;89.24;74657.00;5028497;28;20310;-84
2023/12/19 08:46:28;;;;;;;136.37;64.67;;;;;;;-143.21;89.45;74643.13;5030382;28;20214;-83
2023/12/19 08:48:54;;;;;;;134.97;64.53;;;;;;;-143.21;90.19;74623.28;5030951;28;20223;-85
2023/12/19 08:51:21;;;;;;;150.47;70.57;;;;;;;-143.21;90.46;74593.50;5030955;28;20202;-84
2023/12/19 08:53:48;;;;;;;158.60;71.60;;;;;;;-143.21;90.09;74557.78;5030207;28;20288;-83
2023/12/19 08:56:16;;;;;;;153.93;72.77;;;;;;;-143.21;89.53;74535.97;5030355;28;20221;-84
2023/12/19 08:58:44;;;;;;;176.83;82.63;;;;;;;-143.21;89.59;74514.13;5030332;28;20269;-85
2023/12/19 09:01:11;;;;;;;175.67;81.83;;;;;;;-143.21;89.37;74504.22;5033502;28;20228;-85
2023/12/19 09:03:38;;;;;;;184.03;85.10;;;;;;;-143.21;87.80;74474.44;5030977;28;20657;-85
2023/12/19 09:06:05;;;;;;;179.40;83.47;;;;;;;-143.21;86.22;74458.56;5034712;28;20282;-85
2023/12/19 09:08:32;;;;;;;168.77;78.37;;;;;;;-143.21;85.85;74454.59;5030720;28;20222;-85
2023/12/19 09:10:59;;;;;;;166.70;76.80;;;;;;;-143.21;85.83;74438.72;5033643;28;20237;-86
2023/12/19 09:13:28;;;;;;;152.30;73.60;;;;;;;-143.21;85.67;74428.81;5035386;28;20260;-84
2023/12/19 09:15:54;;;;;;;176.33;78.43;;;;;;;-143.21;85.64;74408.97;5026990;28;20234;-79
2023/12/19 09:18:24;;;;;;;163.17;77.23;;;;;;;-143.21;85.26;74399.03;5036532;28;20714;-86
2023/12/19 09:20:51;;;;;;;174.03;80.67;;;;;;;-143.21;85.35;74395.06;5040123;28;20190;-79
2023/12/19 09:23:18;;;;;;;162.03;79.77;;;;;;;-143.21;85.28;74405.00;5042860;28;20210;-85
2023/12/19 09:25:45;;;;;;;170.87;78.10;;;;;;;-143.21;84.30;74424.84;5044254;28;20336;-85
2023/12/19 09:28:14;;;;;;;180.33;78.83;;;;;;;-143.21;85.20;74434.75;5034587;28;20222;-86
2023/12/19 09:30:43;;;;;;;174.60;78.97;;;;;;;-143.21;85.78;74418.88;5033210;28;20218;-84
2023/12/19 09:33:10;;;;;;;162.20;77.73;;;;;;;-143.21;86.11;74393.09;5042344;28;20252;-85
2023/12/19 09:35:37;;;;;;;161.27;75.40;;;;;;;-143.21;85.19;74367.28;5045595;28;20198;-84
2023/12/19 09:38:05;;;;;;;157.23;74.80;;;;;;;-143.21;84.22;74367.28;5043498;28;20199;-85
2023/12/19 09:40:32;;;;;;;158.53;71.53;;;;;;;-143.21;83.97;74385.16;5034979;28;20276;-86
2023/12/19 09:42:59;;;;;;;157.80;71.23;;;;;;;-143.21;84.59;74393.09;5042367;28;20215;-85
2023/12/19 09:45:26;;;;;;;172.13;73.20;;;;;;;-143.21;85.31;74377.22;5036119;28;20229;-84
2023/12/19 09:48:00;;;;;;;156.77;70.60;;;;;;;-143.21;84.96;74351.41;5039458;28;20218;-84
2023/12/19 09:50:27;;;;;;;156.50;70.57;;;;;;;-143.21;85.54;74323.63;5039154;28;20221;-86
2023/12/19 09:52:57;;;;;;;155.80;71.40;;;;;;;-143.21;83.54;74283.94;5033006;28;20221;-86
2023/12/19 09:55:25;;;;;;;156.03;71.10;;;;;;;-143.21;80.75;74204.59;5036223;28;20260;-86
2023/12/19 09:57:54;;;;;;;161.90;71.20;;;;;;;-143.21;78.19;74121.25;5035799;28;20755;-86
2023/12/19 10:00:25;;;;;;;154.00;72.53;;;;;;;-143.21;76.79;73936.72;5021603;28;20232;-84
2023/12/19 10:02:53;;;;;;;161.57;72.70;;;;;;;-143.21;70.47;73674.81;5028805;28;20221;-86
2023/12/19 10:05:22;;;;;;;152.30;70.43;;;;;;;-143.21;63.12;73412.97;5046081;28;20213;-85
2023/12/19 10:07:49;;;;;;;145.37;72.60;;;;;;;-143.21;57.11;73240.38;5035931;28;20229;-85
2023/12/19 10:10:16;;;;;;;162.10;77.63;;;;;;;-143.21;52.80;73145.16;5035190;28;21645;-85
2023/12/19 10:12:49;;;;;;;158.30;76.23;;;;;;;-143.21;52.53;73105.47;5038511;28;20207;-85
2023/12/19 10:15:16;;;;;;;155.40;75.73;;;;;;;-143.21;53.33;73157.06;5041501;28;20210;-85
2023/12/19 10:18:03;;;;;;;147.13;78.60;;;;;;;-143.21;55.41;73262.19;5043072;28;20194;-85
2023/12/19 10:20:31;;;;;;;152.83;80.70;;;;;;;-143.21;55.16;73196.72;5032235;28;20679;-85
2023/12/19 10:23:08;;;;;;;153.07;79.60;;;;;;;-143.21;52.04;73101.53;5034535;28;20676;-83
2023/12/19 10:25:35;;;;;;;150.23;77.40;;;;;;;-143.21;49.94;72946.81;5039916;28;20204;-83
2023/12/19 10:28:08;;;;;;;145.90;76.20;;;;;;;-143.21;47.55;72825.81;5038599;28;20198;-82
2023/12/19 10:30:35;;;;;;;154.10;76.37;;;;;;;-143.21;45.47;72738.53;5042862;28;20230;-84
2023/12/19 10:33:02;;;;;;;127.57;71.93;;;;;;;-143.21;45.30;72798.03;5045757;28;20703;-85
2023/12/19 10:35:38;;;;;;;126.77;71.07;;;;;;;-143.21;47.24;72938.88;5035224;28;20209;-84
2023/12/19 10:38:05;;;;;;;135.87;74.67;;;;;;;-143.21;49.36;73040.03;5043050;28;20190;-84
2023/12/19 10:40:32;;;;;;;137.83;75.47;;;;;;;-143.21;48.60;72980.53;5038061;28;20553;-84
2023/12/19 10:43:00;;;;;;;126.40;71.93;;;;;;;-143.21;46.40;72827.78;5041977;28;20198;-84
2023/12/19 10:45:28;;;;;;;132.53;71.77;;;;;;;-143.21;43.76;72659.19;5041822;28;20206;-83
2023/12/19 10:47:55;;;;;;;127.80;69.40;;;;;;;-143.21;41.51;72532.28;5031512;28;20210;-85
2023/12/19 10:50:22;;;;;;;128.93;70.73;;;;;;;-143.21;39.58;72443.03;5034780;28;20222;-84
2023/12/19 10:52:51;;;;;;;124.80;71.33;;;;;;;-143.21;38.36;72391.47;5032002;28;20224;-84
2023/12/19 10:55:21;;;;;;;123.67;72.53;;;;;;;-143.21;36.80;72322.06;5035487;28;20202;-84
2023/12/19 10:57:50;;;;;;;115.80;70.80;;;;;;;-143.21;35.51;72252.63;5043937;28;20249;-85